sensor_id;sensor_type;location;lat;lon;timestamp;temperature;humidity
25214;DHT22;13160;51.834;4.706;2022-12-29T00:00:31;12.00;99.90
25214;DHT22;13160;51.834;4.706;2022-12-29T00:03:00;12.10;99.90
25214;DHT22;13160;51.834;4.706;2022-12-29T00:05:32;12.00;99.90
25214;DHT22;13160;51.834;4.706;2022-12-29T00:08:01;12.10;99.90
25214;DHT22;13160;51.834;4.706;2022-12-29T00:10:30;12.10;99.90
25214;DHT22;13160;51.834;4.706;2022-12-29T00:12:59;12.10;99.90
25214;DHT22;13160;51.834;4.706;2022-12-29T00:15:50;12.10;99.90
25214;DHT22;13160;51.834;4.706;2022-12-29T00:18:18;12.10;99.90
25214;DHT22;13160;51.834;4.706;2022-12-29T00:20:47;12.10;99.90
25214;DHT22;13160;51.834;4.706;2022-12-29T00:23:32;12.10;99.90
25214;DHT22;13160;51.834;4.706;2022-12-29T00:26:19;12.10;99.90
25214;DHT22;13160;51.834;4.706;2022-12-29T00:29:07;12.20;99.90
25214;DHT22;13160;51.834;4.706;2022-12-29T00:31:54;12.20;99.90
25214;DHT22;13160;51.834;4.706;2022-12-29T00:34:40;12.20;99.90
25214;DHT22;13160;51.834;4.706;2022-12-29T00:37:26;12.20;99.90
25214;DHT22;13160;51.834;4.706;2022-12-29T00:40:10;12.20;99.90
25214;DHT22;13160;51.834;4.706;2022-12-29T00:43:06;12.20;99.90
25214;DHT22;13160;51.834;4.706;2022-12-29T00:45:51;12.20;99.90
25214;DHT22;13160;51.834;4.706;2022-12-29T00:48:20;12.20;99.90
25214;DHT22;13160;51.834;4.706;2022-12-29T00:51:02;12.20;99.90
25214;DHT22;13160;51.834;4.706;2022-12-29T00:53:31;12.10;99.90
25214;DHT22;13160;51.834;4.706;2022-12-29T00:56:00;12.10;99.90
25214;DHT22;13160;51.834;4.706;2022-12-29T00:58:30;12.10;99.90
25214;DHT22;13160;51.834;4.706;2022-12-29T01:01:02;12.10;99.90
25214;DHT22;13160;51.834;4.706;2022-12-29T01:03:31;12.00;99.90
25214;DHT22;13160;51.834;4.706;2022-12-29T01:06:00;12.00;99.90
25214;DHT22;13160;51.834;4.706;2022-12-29T01:08:29;12.00;99.90
25214;DHT22;13160;51.834;4.706;2022-12-29T01:10:58;11.90;99.90
25214;DHT22;13160;51.834;4.706;2022-12-29T01:13:26;11.90;99.90
25214;DHT22;13160;51.834;4.706;2022-12-29T01:15:56;11.90;99.90
25214;DHT22;13160;51.834;4.706;2022-12-29T01:18:25;11.90;99.90
25214;DHT22;13160;51.834;4.706;2022-12-29T01:20:59;11.90;99.90
25214;DHT22;13160;51.834;4.706;2022-12-29T01:23:28;11.90;99.90
25214;DHT22;13160;51.834;4.706;2022-12-29T01:26:08;11.90;99.90
25214;DHT22;13160;51.834;4.706;2022-12-29T01:28:43;11.90;99.90
25214;DHT22;13160;51.834;4.706;2022-12-29T01:31:14;11.90;99.90
25214;DHT22;13160;51.834;4.706;2022-12-29T01:33:44;11.90;99.90
25214;DHT22;13160;51.834;4.706;2022-12-29T01:36:14;11.80;99.90
25214;DHT22;13160;51.834;4.706;2022-12-29T01:38:44;11.80;99.90
25214;DHT22;13160;51.834;4.706;2022-12-29T01:41:17;11.80;99.90
25214;DHT22;13160;51.834;4.706;2022-12-29T01:43:48;11.80;99.90
25214;DHT22;13160;51.834;4.706;2022-12-29T01:46:26;11.80;99.90
25214;DHT22;13160;51.834;4.706;2022-12-29T01:48:59;11.80;99.90
25214;DHT22;13160;51.834;4.706;2022-12-29T01:51:36;11.80;99.90
25214;DHT22;13160;51.834;4.706;2022-12-29T01:54:09;11.80;99.90
25214;DHT22;13160;51.834;4.706;2022-12-29T01:56:41;11.80;99.90
25214;DHT22;13160;51.834;4.706;2022-12-29T01:59:16;11.80;99.90
25214;DHT22;13160;51.834;4.706;2022-12-29T02:01:50;11.80;99.90
25214;DHT22;13160;51.834;4.706;2022-12-29T02:04:18;11.80;99.90
25214;DHT22;13160;51.834;4.706;2022-12-29T02:06:51;11.70;99.90
25214;DHT22;13160;51.834;4.706;2022-12-29T02:09:21;11.70;99.90
25214;DHT22;13160;51.834;4.706;2022-12-29T02:11:51;11.70;99.90
25214;DHT22;13160;51.834;4.706;2022-12-29T02:14:19;11.70;99.90
25214;DHT22;13160;51.834;4.706;2022-12-29T02:16:59;11.70;99.90
25214;DHT22;13160;51.834;4.706;2022-12-29T02:20:22;11.70;99.90
25214;DHT22;13160;51.834;4.706;2022-12-29T02:23:38;11.70;99.90
25214;DHT22;13160;51.834;4.706;2022-12-29T02:26:27;11.70;99.90
25214;DHT22;13160;51.834;4.706;2022-12-29T02:29:29;11.70;99.90
25214;DHT22;13160;51.834;4.706;2022-12-29T02:32:13;11.80;99.90
25214;DHT22;13160;51.834;4.706;2022-12-29T02:34:52;11.70;99.90
25214;DHT22;13160;51.834;4.706;2022-12-29T02:37:28;11.70;99.90
25214;DHT22;13160;51.834;4.706;2022-12-29T02:40:04;11.70;99.90
25214;DHT22;13160;51.834;4.706;2022-12-29T02:42:39;11.60;99.90
25214;DHT22;13160;51.834;4.706;2022-12-29T02:45:16;11.60;99.90
25214;DHT22;13160;51.834;4.706;2022-12-29T02:47:54;11.60;99.90
25214;DHT22;13160;51.834;4.706;2022-12-29T02:50:28;11.60;99.90
25214;DHT22;13160;51.834;4.706;2022-12-29T02:53:04;11.50;99.90
25214;DHT22;13160;51.834;4.706;2022-12-29T02:55:34;11.50;99.90
25214;DHT22;13160;51.834;4.706;2022-12-29T02:58:15;11.50;99.90
25214;DHT22;13160;51.834;4.706;2022-12-29T03:00:56;11.50;99.90
25214;DHT22;13160;51.834;4.706;2022-12-29T03:03:46;11.50;99.90
25214;DHT22;13160;51.834;4.706;2022-12-29T03:06:33;11.50;99.90
25214;DHT22;13160;51.834;4.706;2022-12-29T03:09:11;11.50;99.90
25214;DHT22;13160;51.834;4.706;2022-12-29T03:11:52;11.40;99.90
25214;DHT22;13160;51.834;4.706;2022-12-29T03:14:47;11.50;99.90
25214;DHT22;13160;51.834;4.706;2022-12-29T03:17:46;11.40;99.90
25214;DHT22;13160;51.834;4.706;2022-12-29T03:20:22;11.40;99.90
25214;DHT22;13160;51.834;4.706;2022-12-29T03:22:59;11.40;99.90
25214;DHT22;13160;51.834;4.706;2022-12-29T03:25:31;11.40;99.90
25214;DHT22;13160;51.834;4.706;2022-12-29T03:28:04;11.30;99.90
25214;DHT22;13160;51.834;4.706;2022-12-29T03:30:35;11.30;99.90
25214;DHT22;13160;51.834;4.706;2022-12-29T03:33:09;11.30;99.90
25214;DHT22;13160;51.834;4.706;2022-12-29T03:35:42;11.30;99.90
25214;DHT22;13160;51.834;4.706;2022-12-29T03:38:16;11.30;99.90
25214;DHT22;13160;51.834;4.706;2022-12-29T03:40:50;11.30;99.90
25214;DHT22;13160;51.834;4.706;2022-12-29T03:43:21;11.30;99.90
25214;DHT22;13160;51.834;4.706;2022-12-29T03:45:50;11.30;99.90
25214;DHT22;13160;51.834;4.706;2022-12-29T03:48:18;11.30;99.90
25214;DHT22;13160;51.834;4.706;2022-12-29T03:50:48;11.30;99.90
25214;DHT22;13160;51.834;4.706;2022-12-29T03:53:16;11.30;99.90
25214;DHT22;13160;51.834;4.706;2022-12-29T03:55:45;11.30;99.90
25214;DHT22;13160;51.834;4.706;2022-12-29T03:58:13;11.30;99.90
25214;DHT22;13160;51.834;4.706;2022-12-29T04:00:41;11.30;99.90
25214;DHT22;13160;51.834;4.706;2022-12-29T04:03:10;11.30;99.90
25214;DHT22;13160;51.834;4.706;2022-12-29T04:05:38;11.30;99.90
25214;DHT22;13160;51.834;4.706;2022-12-29T04:08:08;11.30;99.90
25214;DHT22;13160;51.834;4.706;2022-12-29T04:10:37;11.30;99.90
25214;DHT22;13160;51.834;4.706;2022-12-29T04:13:05;11.30;99.90
25214;DHT22;13160;51.834;4.706;2022-12-29T04:15:34;11.30;99.90
25214;DHT22;13160;51.834;4.706;2022-12-29T04:18:03;11.30;99.90
25214;DHT22;13160;51.834;4.706;2022-12-29T04:20:31;11.30;99.90
25214;DHT22;13160;51.834;4.706;2022-12-29T04:23:18;11.20;99.90
25214;DHT22;13160;51.834;4.706;2022-12-29T04:25:47;11.20;99.90
25214;DHT22;13160;51.834;4.706;2022-12-29T04:28:15;11.20;99.90
25214;DHT22;13160;51.834;4.706;2022-12-29T04:30:45;11.20;99.90
25214;DHT22;13160;51.834;4.706;2022-12-29T04:33:14;11.20;99.90
25214;DHT22;13160;51.834;4.706;2022-12-29T04:35:44;11.20;99.90
25214;DHT22;13160;51.834;4.706;2022-12-29T04:38:13;11.20;99.90
25214;DHT22;13160;51.834;4.706;2022-12-29T04:40:45;11.20;99.90
25214;DHT22;13160;51.834;4.706;2022-12-29T04:43:14;11.20;99.90
25214;DHT22;13160;51.834;4.706;2022-12-29T04:45:44;11.10;99.90
25214;DHT22;13160;51.834;4.706;2022-12-29T04:48:13;11.10;99.90
25214;DHT22;13160;51.834;4.706;2022-12-29T04:50:42;11.10;99.90
25214;DHT22;13160;51.834;4.706;2022-12-29T04:53:11;11.10;99.90
25214;DHT22;13160;51.834;4.706;2022-12-29T04:55:39;11.10;99.90
25214;DHT22;13160;51.834;4.706;2022-12-29T04:58:09;11.10;99.90
25214;DHT22;13160;51.834;4.706;2022-12-29T05:00:48;11.10;99.90
25214;DHT22;13160;51.834;4.706;2022-12-29T05:03:16;11.00;99.90
25214;DHT22;13160;51.834;4.706;2022-12-29T05:05:45;11.10;99.90
25214;DHT22;13160;51.834;4.706;2022-12-29T05:08:13;11.10;99.90
25214;DHT22;13160;51.834;4.706;2022-12-29T05:10:44;11.10;99.90
25214;DHT22;13160;51.834;4.706;2022-12-29T05:13:15;11.10;99.90
25214;DHT22;13160;51.834;4.706;2022-12-29T05:15:47;11.10;99.90
25214;DHT22;13160;51.834;4.706;2022-12-29T05:18:17;11.10;99.90
25214;DHT22;13160;51.834;4.706;2022-12-29T05:20:46;11.10;99.90
25214;DHT22;13160;51.834;4.706;2022-12-29T05:23:15;11.10;99.90
25214;DHT22;13160;51.834;4.706;2022-12-29T05:25:44;11.10;99.90
25214;DHT22;13160;51.834;4.706;2022-12-29T05:28:14;11.10;99.90
25214;DHT22;13160;51.834;4.706;2022-12-29T05:30:44;11.10;99.90
25214;DHT22;13160;51.834;4.706;2022-12-29T05:33:16;11.00;99.90
25214;DHT22;13160;51.834;4.706;2022-12-29T05:35:45;11.10;99.90
25214;DHT22;13160;51.834;4.706;2022-12-29T05:38:13;11.10;99.90
25214;DHT22;13160;51.834;4.706;2022-12-29T05:40:44;11.10;99.90
25214;DHT22;13160;51.834;4.706;2022-12-29T05:43:16;11.10;99.90
25214;DHT22;13160;51.834;4.706;2022-12-29T05:45:48;11.10;99.90
25214;DHT22;13160;51.834;4.706;2022-12-29T05:48:16;11.10;99.90
25214;DHT22;13160;51.834;4.706;2022-12-29T05:50:47;11.10;99.90
25214;DHT22;13160;51.834;4.706;2022-12-29T05:53:15;11.10;99.90
25214;DHT22;13160;51.834;4.706;2022-12-29T05:55:47;11.10;99.90
25214;DHT22;13160;51.834;4.706;2022-12-29T05:58:17;11.10;99.90
25214;DHT22;13160;51.834;4.706;2022-12-29T06:00:46;11.20;99.90
25214;DHT22;13160;51.834;4.706;2022-12-29T06:03:14;11.10;99.90
25214;DHT22;13160;51.834;4.706;2022-12-29T06:05:44;11.10;99.90
25214;DHT22;13160;51.834;4.706;2022-12-29T06:08:13;11.10;99.90
25214;DHT22;13160;51.834;4.706;2022-12-29T06:10:42;11.10;99.90
25214;DHT22;13160;51.834;4.706;2022-12-29T06:13:10;11.10;99.90
25214;DHT22;13160;51.834;4.706;2022-12-29T06:15:42;11.10;99.90
25214;DHT22;13160;51.834;4.706;2022-12-29T06:18:10;11.10;99.90
25214;DHT22;13160;51.834;4.706;2022-12-29T06:20:46;11.10;99.90
25214;DHT22;13160;51.834;4.706;2022-12-29T06:23:15;11.10;99.90
25214;DHT22;13160;51.834;4.706;2022-12-29T06:25:47;11.10;99.90
25214;DHT22;13160;51.834;4.706;2022-12-29T06:28:16;11.10;99.90
25214;DHT22;13160;51.834;4.706;2022-12-29T06:30:46;11.00;99.90
25214;DHT22;13160;51.834;4.706;2022-12-29T06:33:15;10.90;99.90
25214;DHT22;13160;51.834;4.706;2022-12-29T06:35:44;10.80;99.90
25214;DHT22;13160;51.834;4.706;2022-12-29T06:38:17;10.80;99.90
25214;DHT22;13160;51.834;4.706;2022-12-29T06:40:45;10.70;99.90
25214;DHT22;13160;51.834;4.706;2022-12-29T06:43:27;10.60;99.90
25214;DHT22;13160;51.834;4.706;2022-12-29T06:51:35;10.40;99.90
25214;DHT22;13160;51.834;4.706;2022-12-29T06:54:11;10.40;99.90
25214;DHT22;13160;51.834;4.706;2022-12-29T06:56:40;10.40;99.90
25214;DHT22;13160;51.834;4.706;2022-12-29T06:59:20;10.30;99.90
25214;DHT22;13160;51.834;4.706;2022-12-29T07:01:55;10.30;99.90
25214;DHT22;13160;51.834;4.706;2022-12-29T07:04:24;10.30;99.90
25214;DHT22;13160;51.834;4.706;2022-12-29T07:06:56;10.30;99.90
25214;DHT22;13160;51.834;4.706;2022-12-29T07:09:26;10.20;99.90
25214;DHT22;13160;51.834;4.706;2022-12-29T07:12:01;10.20;99.90
25214;DHT22;13160;51.834;4.706;2022-12-29T07:14:33;10.10;99.90
25214;DHT22;13160;51.834;4.706;2022-12-29T07:17:10;10.20;99.90
25214;DHT22;13160;51.834;4.706;2022-12-29T07:19:40;10.10;99.90
25214;DHT22;13160;51.834;4.706;2022-12-29T07:22:15;10.10;99.90
25214;DHT22;13160;51.834;4.706;2022-12-29T07:25:08;10.10;99.90
25214;DHT22;13160;51.834;4.706;2022-12-29T07:27:51;10.10;99.90
25214;DHT22;13160;51.834;4.706;2022-12-29T07:30:20;10.20;99.90
25214;DHT22;13160;51.834;4.706;2022-12-29T07:32:51;10.10;99.90
25214;DHT22;13160;51.834;4.706;2022-12-29T07:35:22;10.10;99.90
25214;DHT22;13160;51.834;4.706;2022-12-29T07:37:56;10.10;99.90
25214;DHT22;13160;51.834;4.706;2022-12-29T07:40:26;10.10;99.90
25214;DHT22;13160;51.834;4.706;2022-12-29T07:42:58;10.10;99.90
25214;DHT22;13160;51.834;4.706;2022-12-29T07:45:30;10.10;99.90
25214;DHT22;13160;51.834;4.706;2022-12-29T07:47:59;10.10;99.90
25214;DHT22;13160;51.834;4.706;2022-12-29T07:50:31;10.10;99.90
25214;DHT22;13160;51.834;4.706;2022-12-29T07:53:02;10.20;99.90
25214;DHT22;13160;51.834;4.706;2022-12-29T07:55:32;10.10;99.90
25214;DHT22;13160;51.834;4.706;2022-12-29T07:58:03;10.20;99.90
25214;DHT22;13160;51.834;4.706;2022-12-29T08:00:32;10.20;99.90
25214;DHT22;13160;51.834;4.706;2022-12-29T08:03:09;10.20;99.90
25214;DHT22;13160;51.834;4.706;2022-12-29T08:05:38;10.30;99.90
25214;DHT22;13160;51.834;4.706;2022-12-29T08:08:09;10.30;99.90
25214;DHT22;13160;51.834;4.706;2022-12-29T08:10:40;10.30;99.90
25214;DHT22;13160;51.834;4.706;2022-12-29T08:13:10;10.30;99.90
25214;DHT22;13160;51.834;4.706;2022-12-29T08:15:41;10.30;99.90
25214;DHT22;13160;51.834;4.706;2022-12-29T08:18:11;10.30;99.90
25214;DHT22;13160;51.834;4.706;2022-12-29T08:20:44;10.40;99.90
25214;DHT22;13160;51.834;4.706;2022-12-29T08:23:25;10.30;99.90
25214;DHT22;13160;51.834;4.706;2022-12-29T08:25:59;10.30;99.90
25214;DHT22;13160;51.834;4.706;2022-12-29T08:28:30;10.40;99.90
25214;DHT22;13160;51.834;4.706;2022-12-29T08:31:00;10.40;99.90
25214;DHT22;13160;51.834;4.706;2022-12-29T08:33:33;10.40;99.90
25214;DHT22;13160;51.834;4.706;2022-12-29T08:36:04;10.40;99.90
25214;DHT22;13160;51.834;4.706;2022-12-29T08:38:38;10.40;99.90
25214;DHT22;13160;51.834;4.706;2022-12-29T08:41:07;10.50;99.90
25214;DHT22;13160;51.834;4.706;2022-12-29T08:43:38;10.50;99.90
25214;DHT22;13160;51.834;4.706;2022-12-29T08:46:06;10.40;99.90
25214;DHT22;13160;51.834;4.706;2022-12-29T08:48:35;10.40;99.90
25214;DHT22;13160;51.834;4.706;2022-12-29T08:51:03;10.50;99.90
25214;DHT22;13160;51.834;4.706;2022-12-29T08:53:32;10.50;99.90
25214;DHT22;13160;51.834;4.706;2022-12-29T08:56:02;10.50;99.90
25214;DHT22;13160;51.834;4.706;2022-12-29T08:58:32;10.50;99.90
25214;DHT22;13160;51.834;4.706;2022-12-29T09:01:05;10.50;99.90
25214;DHT22;13160;51.834;4.706;2022-12-29T09:03:46;10.50;99.90
25214;DHT22;13160;51.834;4.706;2022-12-29T09:06:42;10.40;99.90
25214;DHT22;13160;51.834;4.706;2022-12-29T09:28:15;10.20;99.90
25214;DHT22;13160;51.834;4.706;2022-12-29T09:30:50;10.10;99.90
25214;DHT22;13160;51.834;4.706;2022-12-29T09:33:51;10.10;99.90
25214;DHT22;13160;51.834;4.706;2022-12-29T09:36:20;10.10;99.90
25214;DHT22;13160;51.834;4.706;2022-12-29T09:38:49;10.00;99.90
25214;DHT22;13160;51.834;4.706;2022-12-29T09:41:23;10.00;99.90
25214;DHT22;13160;51.834;4.706;2022-12-29T09:44:06;10.10;99.90
25214;DHT22;13160;51.834;4.706;2022-12-29T09:46:38;10.00;99.90
25214;DHT22;13160;51.834;4.706;2022-12-29T09:49:16;10.10;99.90
25214;DHT22;13160;51.834;4.706;2022-12-29T09:51:52;10.10;99.90
25214;DHT22;13160;51.834;4.706;2022-12-29T09:54:39;10.10;99.90
25214;DHT22;13160;51.834;4.706;2022-12-29T09:57:27;10.10;99.90
25214;DHT22;13160;51.834;4.706;2022-12-29T10:00:03;10.10;99.90
25214;DHT22;13160;51.834;4.706;2022-12-29T10:02:38;10.10;99.90
25214;DHT22;13160;51.834;4.706;2022-12-29T10:05:30;10.20;99.90
25214;DHT22;13160;51.834;4.706;2022-12-29T10:08:29;10.20;99.90
25214;DHT22;13160;51.834;4.706;2022-12-29T10:11:13;10.20;99.90
25214;DHT22;13160;51.834;4.706;2022-12-29T10:14:08;10.20;99.90
25214;DHT22;13160;51.834;4.706;2022-12-29T10:16:49;10.20;99.90
25214;DHT22;13160;51.834;4.706;2022-12-29T10:19:35;10.20;99.90
25214;DHT22;13160;51.834;4.706;2022-12-29T10:22:20;10.20;99.90
25214;DHT22;13160;51.834;4.706;2022-12-29T10:24:57;10.30;99.90
25214;DHT22;13160;51.834;4.706;2022-12-29T10:27:30;10.30;99.90
25214;DHT22;13160;51.834;4.706;2022-12-29T10:30:01;10.30;99.90
25214;DHT22;13160;51.834;4.706;2022-12-29T10:32:34;10.30;99.90
25214;DHT22;13160;51.834;4.706;2022-12-29T10:35:12;10.30;99.90
25214;DHT22;13160;51.834;4.706;2022-12-29T10:37:50;10.40;99.90
25214;DHT22;13160;51.834;4.706;2022-12-29T10:40:27;10.40;99.90
25214;DHT22;13160;51.834;4.706;2022-12-29T10:42:59;10.40;99.90
25214;DHT22;13160;51.834;4.706;2022-12-29T10:45:29;10.40;99.90
25214;DHT22;13160;51.834;4.706;2022-12-29T10:48:02;10.40;99.90
25214;DHT22;13160;51.834;4.706;2022-12-29T10:50:33;10.40;99.90
25214;DHT22;13160;51.834;4.706;2022-12-29T10:53:04;10.40;99.90
25214;DHT22;13160;51.834;4.706;2022-12-29T10:55:35;10.40;99.90
25214;DHT22;13160;51.834;4.706;2022-12-29T10:58:05;10.50;99.90
25214;DHT22;13160;51.834;4.706;2022-12-29T11:00:36;10.60;99.90
25214;DHT22;13160;51.834;4.706;2022-12-29T11:06:27;10.70;99.90
25214;DHT22;13160;51.834;4.706;2022-12-29T11:08:58;10.70;99.90
25214;DHT22;13160;51.834;4.706;2022-12-29T11:11:33;10.70;99.90
25214;DHT22;13160;51.834;4.706;2022-12-29T11:14:11;10.70;99.90
25214;DHT22;13160;51.834;4.706;2022-12-29T11:16:42;10.80;99.90
25214;DHT22;13160;51.834;4.706;2022-12-29T11:19:25;10.70;99.90
25214;DHT22;13160;51.834;4.706;2022-12-29T11:21:54;10.70;99.90
25214;DHT22;13160;51.834;4.706;2022-12-29T11:24:25;10.80;99.90
25214;DHT22;13160;51.834;4.706;2022-12-29T11:26:55;10.70;99.90
25214;DHT22;13160;51.834;4.706;2022-12-29T11:29:38;10.80;99.90
25214;DHT22;13160;51.834;4.706;2022-12-29T11:32:12;10.70;99.90
25214;DHT22;13160;51.834;4.706;2022-12-29T11:34:55;10.70;99.90
25214;DHT22;13160;51.834;4.706;2022-12-29T11:37:28;10.70;99.90
25214;DHT22;13160;51.834;4.706;2022-12-29T11:40:00;10.70;99.90
25214;DHT22;13160;51.834;4.706;2022-12-29T11:42:35;10.70;99.90
25214;DHT22;13160;51.834;4.706;2022-12-29T11:45:09;10.70;99.90
25214;DHT22;13160;51.834;4.706;2022-12-29T11:47:44;10.80;99.90
25214;DHT22;13160;51.834;4.706;2022-12-29T11:50:19;10.80;99.90
25214;DHT22;13160;51.834;4.706;2022-12-29T11:52:57;10.80;99.90
25214;DHT22;13160;51.834;4.706;2022-12-29T11:55:27;10.80;99.90
25214;DHT22;13160;51.834;4.706;2022-12-29T11:57:58;10.80;99.90
25214;DHT22;13160;51.834;4.706;2022-12-29T12:00:30;10.80;99.90
25214;DHT22;13160;51.834;4.706;2022-12-29T12:03:02;10.80;99.90
25214;DHT22;13160;51.834;4.706;2022-12-29T12:05:38;10.90;99.90
25214;DHT22;13160;51.834;4.706;2022-12-29T12:08:13;10.90;99.90
25214;DHT22;13160;51.834;4.706;2022-12-29T12:10:52;10.90;99.90
25214;DHT22;13160;51.834;4.706;2022-12-29T12:13:29;10.90;99.90
25214;DHT22;13160;51.834;4.706;2022-12-29T12:16:04;10.90;99.90
25214;DHT22;13160;51.834;4.706;2022-12-29T12:18:40;11.00;99.90
25214;DHT22;13160;51.834;4.706;2022-12-29T12:21:20;11.00;99.90
25214;DHT22;13160;51.834;4.706;2022-12-29T12:24:20;10.90;99.90
25214;DHT22;13160;51.834;4.706;2022-12-29T12:27:00;10.90;99.90
25214;DHT22;13160;51.834;4.706;2022-12-29T12:29:36;10.90;99.90
25214;DHT22;13160;51.834;4.706;2022-12-29T12:32:14;10.90;99.90
25214;DHT22;13160;51.834;4.706;2022-12-29T12:34:46;11.00;99.90
25214;DHT22;13160;51.834;4.706;2022-12-29T12:37:28;11.00;99.90
25214;DHT22;13160;51.834;4.706;2022-12-29T12:43:30;11.00;99.90
25214;DHT22;13160;51.834;4.706;2022-12-29T12:46:30;11.00;99.90
25214;DHT22;13160;51.834;4.706;2022-12-29T12:49:41;11.00;99.90
25214;DHT22;13160;51.834;4.706;2022-12-29T12:52:40;11.00;99.90
25214;DHT22;13160;51.834;4.706;2022-12-29T12:55:31;11.00;99.90
25214;DHT22;13160;51.834;4.706;2022-12-29T12:58:12;11.10;99.90
25214;DHT22;13160;51.834;4.706;2022-12-29T13:00:57;11.10;99.90
25214;DHT22;13160;51.834;4.706;2022-12-29T13:03:50;11.10;99.90
25214;DHT22;13160;51.834;4.706;2022-12-29T13:06:38;11.10;99.90
25214;DHT22;13160;51.834;4.706;2022-12-29T13:09:25;11.00;99.90
25214;DHT22;13160;51.834;4.706;2022-12-29T13:12:08;11.00;99.90
25214;DHT22;13160;51.834;4.706;2022-12-29T13:14:57;11.00;99.90
25214;DHT22;13160;51.834;4.706;2022-12-29T13:17:39;11.00;99.90
25214;DHT22;13160;51.834;4.706;2022-12-29T13:20:20;11.00;99.90
25214;DHT22;13160;51.834;4.706;2022-12-29T13:22:59;11.00;99.90
25214;DHT22;13160;51.834;4.706;2022-12-29T13:25:37;10.90;99.90
25214;DHT22;13160;51.834;4.706;2022-12-29T13:28:17;10.90;99.90
25214;DHT22;13160;51.834;4.706;2022-12-29T13:30:55;10.90;99.90
25214;DHT22;13160;51.834;4.706;2022-12-29T13:33:33;10.80;99.90
25214;DHT22;13160;51.834;4.706;2022-12-29T13:36:12;10.80;99.90
25214;DHT22;13160;51.834;4.706;2022-12-29T13:38:46;10.80;99.90
25214;DHT22;13160;51.834;4.706;2022-12-29T13:41:21;10.70;99.90
25214;DHT22;13160;51.834;4.706;2022-12-29T13:43:56;10.70;99.90
25214;DHT22;13160;51.834;4.706;2022-12-29T13:46:28;10.60;99.90
25214;DHT22;13160;51.834;4.706;2022-12-29T13:49:04;10.60;99.90
25214;DHT22;13160;51.834;4.706;2022-12-29T13:51:34;10.60;99.90
25214;DHT22;13160;51.834;4.706;2022-12-29T13:54:15;10.60;99.90
25214;DHT22;13160;51.834;4.706;2022-12-29T13:56:59;10.60;99.90
25214;DHT22;13160;51.834;4.706;2022-12-29T13:59:40;10.60;99.90
25214;DHT22;13160;51.834;4.706;2022-12-29T14:02:27;10.60;99.90
25214;DHT22;13160;51.834;4.706;2022-12-29T14:05:01;10.60;99.90
25214;DHT22;13160;51.834;4.706;2022-12-29T14:07:37;10.60;99.90
25214;DHT22;13160;51.834;4.706;2022-12-29T14:10:18;10.60;99.90
25214;DHT22;13160;51.834;4.706;2022-12-29T14:13:03;10.60;99.90
25214;DHT22;13160;51.834;4.706;2022-12-29T14:15:37;10.60;99.90
25214;DHT22;13160;51.834;4.706;2022-12-29T14:18:15;10.60;99.90
25214;DHT22;13160;51.834;4.706;2022-12-29T14:20:53;10.60;99.90
25214;DHT22;13160;51.834;4.706;2022-12-29T14:23:29;10.60;99.90
25214;DHT22;13160;51.834;4.706;2022-12-29T14:26:12;10.60;99.90
25214;DHT22;13160;51.834;4.706;2022-12-29T14:28:44;10.60;99.90
25214;DHT22;13160;51.834;4.706;2022-12-29T14:31:36;10.60;99.90
25214;DHT22;13160;51.834;4.706;2022-12-29T14:34:38;10.60;99.90
25214;DHT22;13160;51.834;4.706;2022-12-29T14:37:24;10.60;99.90
25214;DHT22;13160;51.834;4.706;2022-12-29T14:40:05;10.50;99.90
25214;DHT22;13160;51.834;4.706;2022-12-29T14:42:38;10.50;99.90
25214;DHT22;13160;51.834;4.706;2022-12-29T14:45:26;10.50;99.90
25214;DHT22;13160;51.834;4.706;2022-12-29T14:47:56;10.60;99.90
25214;DHT22;13160;51.834;4.706;2022-12-29T14:50:35;10.50;99.90
25214;DHT22;13160;51.834;4.706;2022-12-29T14:53:40;10.50;99.90
25214;DHT22;13160;51.834;4.706;2022-12-29T14:56:10;10.50;99.90
25214;DHT22;13160;51.834;4.706;2022-12-29T14:58:46;10.50;99.90
25214;DHT22;13160;51.834;4.706;2022-12-29T15:01:22;10.60;99.90
25214;DHT22;13160;51.834;4.706;2022-12-29T15:03:57;10.50;99.90
25214;DHT22;13160;51.834;4.706;2022-12-29T15:06:30;10.50;99.90
25214;DHT22;13160;51.834;4.706;2022-12-29T15:09:05;10.50;99.90
25214;DHT22;13160;51.834;4.706;2022-12-29T15:11:47;10.40;99.90
25214;DHT22;13160;51.834;4.706;2022-12-29T15:14:32;10.50;99.90
25214;DHT22;13160;51.834;4.706;2022-12-29T15:17:11;10.40;99.90
25214;DHT22;13160;51.834;4.706;2022-12-29T15:19:52;10.40;99.90
25214;DHT22;13160;51.834;4.706;2022-12-29T15:22:21;10.40;99.90
25214;DHT22;13160;51.834;4.706;2022-12-29T15:24:50;10.40;99.90
25214;DHT22;13160;51.834;4.706;2022-12-29T15:27:21;10.40;99.90
25214;DHT22;13160;51.834;4.706;2022-12-29T15:29:57;10.40;99.90
25214;DHT22;13160;51.834;4.706;2022-12-29T15:32:39;10.30;99.90
25214;DHT22;13160;51.834;4.706;2022-12-29T15:35:24;10.30;99.90
25214;DHT22;13160;51.834;4.706;2022-12-29T15:37:55;10.30;99.90
25214;DHT22;13160;51.834;4.706;2022-12-29T15:40:26;10.30;99.90
25214;DHT22;13160;51.834;4.706;2022-12-29T15:43:18;10.30;99.90
25214;DHT22;13160;51.834;4.706;2022-12-29T15:46:01;10.20;99.90
25214;DHT22;13160;51.834;4.706;2022-12-29T15:48:31;10.20;99.90
25214;DHT22;13160;51.834;4.706;2022-12-29T15:51:00;10.20;99.90
25214;DHT22;13160;51.834;4.706;2022-12-29T15:53:31;10.10;99.90
25214;DHT22;13160;51.834;4.706;2022-12-29T15:56:02;10.10;99.90
25214;DHT22;13160;51.834;4.706;2022-12-29T15:58:40;10.10;99.90
25214;DHT22;13160;51.834;4.706;2022-12-29T16:01:18;10.10;99.90
25214;DHT22;13160;51.834;4.706;2022-12-29T16:03:50;10.00;99.90
25214;DHT22;13160;51.834;4.706;2022-12-29T16:06:30;10.00;99.90
25214;DHT22;13160;51.834;4.706;2022-12-29T16:09:02;9.90;99.90
25214;DHT22;13160;51.834;4.706;2022-12-29T16:11:34;9.90;99.90
25214;DHT22;13160;51.834;4.706;2022-12-29T16:14:08;9.90;99.90
25214;DHT22;13160;51.834;4.706;2022-12-29T16:16:39;9.90;99.90
25214;DHT22;13160;51.834;4.706;2022-12-29T16:19:13;9.80;99.90
25214;DHT22;13160;51.834;4.706;2022-12-29T16:21:45;9.80;99.90
25214;DHT22;13160;51.834;4.706;2022-12-29T16:24:15;9.80;99.90
25214;DHT22;13160;51.834;4.706;2022-12-29T16:26:48;9.70;99.90
25214;DHT22;13160;51.834;4.706;2022-12-29T16:29:19;9.70;99.90
25214;DHT22;13160;51.834;4.706;2022-12-29T16:31:51;9.70;99.90
25214;DHT22;13160;51.834;4.706;2022-12-29T16:34:30;9.70;99.90
25214;DHT22;13160;51.834;4.706;2022-12-29T16:37:19;9.60;99.90
25214;DHT22;13160;51.834;4.706;2022-12-29T16:39:55;9.60;99.90
25214;DHT22;13160;51.834;4.706;2022-12-29T16:42:33;9.60;99.90
25214;DHT22;13160;51.834;4.706;2022-12-29T16:48:31;9.50;99.90
25214;DHT22;13160;51.834;4.706;2022-12-29T16:51:12;9.50;99.90
25214;DHT22;13160;51.834;4.706;2022-12-29T16:53:47;9.50;99.90
25214;DHT22;13160;51.834;4.706;2022-12-29T16:56:17;9.50;99.90
25214;DHT22;13160;51.834;4.706;2022-12-29T16:58:48;9.50;99.90